Terminal Aerodrome Forecast
Issued by NWS Los Angeles, CA

Home | Current Version | Previous Version | Text Only | Print | Product List | Glossary On
Versions: 1 2 3 4 5 6 7 8 9 10 11 12 13 14 15 16 17 18 19 20
264
FTUS46 KLOX 241724
TAFSMX
TAF
KSMX 241724Z 2418/2518 27006KT P6SM SCT018 BKN025 OVC035
     FM241900 28006KT P6SM BKN020 BKN040
     FM242100 30012G22KT P6SM SCT040
     FM250300 30010KT P6SM OVC015
     FM250900 VRB03KT P6SM VCSH OVC015=

USA.gov is the U.S. government's official web portal to all federal, state and local government web resources and services.